sensor_id;sensor_type;location;lat;lon;timestamp;P1;durP1;ratioP1;P2;durP2;ratioP2
71671;SDS011;62112;45.638;11.714;2023-02-07T00:00:41;7.60;;;4.33;;
71671;SDS011;62112;45.638;11.714;2023-02-07T00:03:07;9.18;;;4.78;;
71671;SDS011;62112;45.638;11.714;2023-02-07T00:05:33;7.82;;;4.28;;
71671;SDS011;62112;45.638;11.714;2023-02-07T00:08:01;7.97;;;4.45;;
71671;SDS011;62112;45.638;11.714;2023-02-07T00:10:28;8.55;;;4.72;;
71671;SDS011;62112;45.638;11.714;2023-02-07T00:12:53;8.03;;;4.33;;
71671;SDS011;62112;45.638;11.714;2023-02-07T00:15:19;7.80;;;4.60;;
71671;SDS011;62112;45.638;11.714;2023-02-07T00:17:45;7.97;;;4.50;;
71671;SDS011;62112;45.638;11.714;2023-02-07T00:20:11;7.50;;;4.15;;
71671;SDS011;62112;45.638;11.714;2023-02-07T00:22:37;8.38;;;4.25;;
71671;SDS011;62112;45.638;11.714;2023-02-07T00:25:03;8.05;;;4.38;;
71671;SDS011;62112;45.638;11.714;2023-02-07T00:27:29;8.50;;;4.60;;
71671;SDS011;62112;45.638;11.714;2023-02-07T00:29:55;7.88;;;4.13;;
71671;SDS011;62112;45.638;11.714;2023-02-07T00:32:21;8.27;;;4.13;;
71671;SDS011;62112;45.638;11.714;2023-02-07T00:34:46;7.97;;;4.60;;
71671;SDS011;62112;45.638;11.714;2023-02-07T00:37:14;8.50;;;4.53;;
71671;SDS011;62112;45.638;11.714;2023-02-07T00:39:41;8.13;;;4.38;;
71671;SDS011;62112;45.638;11.714;2023-02-07T00:42:07;8.60;;;4.43;;
71671;SDS011;62112;45.638;11.714;2023-02-07T00:44:33;7.50;;;4.10;;
71671;SDS011;62112;45.638;11.714;2023-02-07T00:46:59;8.57;;;4.60;;
71671;SDS011;62112;45.638;11.714;2023-02-07T00:49:24;8.70;;;4.40;;
71671;SDS011;62112;45.638;11.714;2023-02-07T00:51:50;7.43;;;4.07;;
71671;SDS011;62112;45.638;11.714;2023-02-07T00:54:16;7.10;;;4.03;;
71671;SDS011;62112;45.638;11.714;2023-02-07T00:56:43;7.57;;;4.10;;
71671;SDS011;62112;45.638;11.714;2023-02-07T00:59:08;7.73;;;4.30;;
71671;SDS011;62112;45.638;11.714;2023-02-07T01:01:34;8.38;;;4.28;;
71671;SDS011;62112;45.638;11.714;2023-02-07T01:04:00;7.90;;;4.25;;
71671;SDS011;62112;45.638;11.714;2023-02-07T01:06:26;8.73;;;4.30;;
71671;SDS011;62112;45.638;11.714;2023-02-07T01:08:57;8.20;;;4.40;;
71671;SDS011;62112;45.638;11.714;2023-02-07T01:11:23;6.97;;;4.10;;
71671;SDS011;62112;45.638;11.714;2023-02-07T01:13:50;7.10;;;3.92;;
71671;SDS011;62112;45.638;11.714;2023-02-07T01:16:23;8.35;;;4.38;;
71671;SDS011;62112;45.638;11.714;2023-02-07T01:18:51;7.50;;;3.80;;
71671;SDS011;62112;45.638;11.714;2023-02-07T01:21:18;7.57;;;4.13;;
71671;SDS011;62112;45.638;11.714;2023-02-07T01:23:46;8.05;;;4.18;;
71671;SDS011;62112;45.638;11.714;2023-02-07T01:26:12;8.82;;;4.05;;
71671;SDS011;62112;45.638;11.714;2023-02-07T01:28:38;8.30;;;4.38;;
71671;SDS011;62112;45.638;11.714;2023-02-07T01:31:08;8.07;;;4.07;;
71671;SDS011;62112;45.638;11.714;2023-02-07T01:33:36;7.63;;;4.10;;
71671;SDS011;62112;45.638;11.714;2023-02-07T01:36:06;8.50;;;4.25;;
71671;SDS011;62112;45.638;11.714;2023-02-07T01:38:35;7.63;;;4.03;;
71671;SDS011;62112;45.638;11.714;2023-02-07T01:41:02;7.47;;;3.90;;
71671;SDS011;62112;45.638;11.714;2023-02-07T01:43:28;8.10;;;3.85;;
71671;SDS011;62112;45.638;11.714;2023-02-07T01:45:55;7.85;;;4.18;;
71671;SDS011;62112;45.638;11.714;2023-02-07T01:48:25;8.07;;;4.22;;
71671;SDS011;62112;45.638;11.714;2023-02-07T01:50:58;8.02;;;4.38;;
71671;SDS011;62112;45.638;11.714;2023-02-07T01:53:28;7.93;;;3.80;;
71671;SDS011;62112;45.638;11.714;2023-02-07T01:55:56;7.28;;;3.70;;
71671;SDS011;62112;45.638;11.714;2023-02-07T01:58:26;7.95;;;3.95;;
71671;SDS011;62112;45.638;11.714;2023-02-07T02:00:52;7.32;;;4.05;;
71671;SDS011;62112;45.638;11.714;2023-02-07T02:03:19;8.80;;;4.05;;
71671;SDS011;62112;45.638;11.714;2023-02-07T02:05:46;7.10;;;3.83;;
71671;SDS011;62112;45.638;11.714;2023-02-07T02:08:13;7.35;;;3.92;;
71671;SDS011;62112;45.638;11.714;2023-02-07T02:19:17;7.32;;;3.83;;
71671;SDS011;62112;45.638;11.714;2023-02-07T02:22:35;8.02;;;4.03;;
71671;SDS011;62112;45.638;11.714;2023-02-07T02:39:27;7.22;;;3.90;;
71671;SDS011;62112;45.638;11.714;2023-02-07T02:44:41;8.00;;;3.63;;
71671;SDS011;62112;45.638;11.714;2023-02-07T02:47:16;7.55;;;3.90;;
71671;SDS011;62112;45.638;11.714;2023-02-07T02:49:44;7.25;;;3.85;;
71671;SDS011;62112;45.638;11.714;2023-02-07T02:52:11;7.47;;;3.95;;
71671;SDS011;62112;45.638;11.714;2023-02-07T02:54:38;7.07;;;3.63;;
71671;SDS011;62112;45.638;11.714;2023-02-07T03:07:59;7.83;;;4.10;;
71671;SDS011;62112;45.638;11.714;2023-02-07T03:19:00;7.78;;;3.78;;
71671;SDS011;62112;45.638;11.714;2023-02-07T03:21:49;7.00;;;3.73;;
71671;SDS011;62112;45.638;11.714;2023-02-07T03:24:24;8.95;;;4.10;;
71671;SDS011;62112;45.638;11.714;2023-02-07T03:26:56;7.25;;;3.80;;
71671;SDS011;62112;45.638;11.714;2023-02-07T03:29:30;7.40;;;3.78;;
71671;SDS011;62112;45.638;11.714;2023-02-07T03:31:59;7.00;;;3.47;;
71671;SDS011;62112;45.638;11.714;2023-02-07T03:34:29;7.53;;;4.00;;
71671;SDS011;62112;45.638;11.714;2023-02-07T03:37:03;7.05;;;3.53;;
71671;SDS011;62112;45.638;11.714;2023-02-07T03:39:34;7.18;;;3.60;;
71671;SDS011;62112;45.638;11.714;2023-02-07T03:42:05;7.30;;;4.15;;
71671;SDS011;62112;45.638;11.714;2023-02-07T03:44:39;7.13;;;3.75;;
71671;SDS011;62112;45.638;11.714;2023-02-07T03:47:07;7.40;;;3.50;;
71671;SDS011;62112;45.638;11.714;2023-02-07T03:49:33;7.40;;;3.72;;
71671;SDS011;62112;45.638;11.714;2023-02-07T03:51:59;7.85;;;3.78;;
71671;SDS011;62112;45.638;11.714;2023-02-07T03:54:25;8.33;;;3.80;;
71671;SDS011;62112;45.638;11.714;2023-02-07T03:56:51;7.93;;;4.50;;
71671;SDS011;62112;45.638;11.714;2023-02-07T03:59:17;8.02;;;4.10;;
71671;SDS011;62112;45.638;11.714;2023-02-07T04:01:43;7.80;;;3.83;;
71671;SDS011;62112;45.638;11.714;2023-02-07T04:04:09;7.50;;;3.60;;
71671;SDS011;62112;45.638;11.714;2023-02-07T04:06:36;6.63;;;3.45;;
71671;SDS011;62112;45.638;11.714;2023-02-07T04:09:02;8.70;;;3.85;;
71671;SDS011;62112;45.638;11.714;2023-02-07T04:11:30;8.27;;;3.92;;
71671;SDS011;62112;45.638;11.714;2023-02-07T04:13:56;7.90;;;4.05;;
71671;SDS011;62112;45.638;11.714;2023-02-07T04:16:22;7.70;;;3.90;;
71671;SDS011;62112;45.638;11.714;2023-02-07T04:18:48;7.32;;;3.97;;
71671;SDS011;62112;45.638;11.714;2023-02-07T04:21:14;7.22;;;3.60;;
71671;SDS011;62112;45.638;11.714;2023-02-07T04:23:41;7.73;;;3.73;;
71671;SDS011;62112;45.638;11.714;2023-02-07T04:26:10;7.47;;;3.85;;
71671;SDS011;62112;45.638;11.714;2023-02-07T04:28:37;7.00;;;3.70;;
71671;SDS011;62112;45.638;11.714;2023-02-07T04:31:03;6.95;;;3.60;;
71671;SDS011;62112;45.638;11.714;2023-02-07T04:33:37;6.03;;;3.27;;
71671;SDS011;62112;45.638;11.714;2023-02-07T04:36:03;6.97;;;3.70;;
71671;SDS011;62112;45.638;11.714;2023-02-07T04:38:31;7.38;;;3.97;;
71671;SDS011;62112;45.638;11.714;2023-02-07T04:41:00;7.05;;;3.60;;
71671;SDS011;62112;45.638;11.714;2023-02-07T04:43:31;7.25;;;3.80;;
71671;SDS011;62112;45.638;11.714;2023-02-07T04:46:01;6.93;;;3.70;;
71671;SDS011;62112;45.638;11.714;2023-02-07T04:48:29;7.32;;;3.75;;
71671;SDS011;62112;45.638;11.714;2023-02-07T04:50:57;6.95;;;3.78;;
71671;SDS011;62112;45.638;11.714;2023-02-07T04:53:26;6.45;;;3.60;;
71671;SDS011;62112;45.638;11.714;2023-02-07T04:55:53;7.25;;;3.80;;
71671;SDS011;62112;45.638;11.714;2023-02-07T04:58:22;9.43;;;3.77;;
71671;SDS011;62112;45.638;11.714;2023-02-07T05:00:48;7.18;;;3.83;;
71671;SDS011;62112;45.638;11.714;2023-02-07T05:03:14;7.80;;;3.90;;
71671;SDS011;62112;45.638;11.714;2023-02-07T05:05:40;7.07;;;3.70;;
71671;SDS011;62112;45.638;11.714;2023-02-07T05:08:08;8.13;;;3.72;;
71671;SDS011;62112;45.638;11.714;2023-02-07T05:10:34;6.35;;;3.50;;
71671;SDS011;62112;45.638;11.714;2023-02-07T05:13:01;6.82;;;3.58;;
71671;SDS011;62112;45.638;11.714;2023-02-07T05:15:26;7.53;;;3.63;;
71671;SDS011;62112;45.638;11.714;2023-02-07T05:17:52;7.32;;;3.80;;
71671;SDS011;62112;45.638;11.714;2023-02-07T05:20:18;7.43;;;3.53;;
71671;SDS011;62112;45.638;11.714;2023-02-07T05:22:44;7.10;;;3.63;;
71671;SDS011;62112;45.638;11.714;2023-02-07T05:25:10;7.25;;;3.70;;
71671;SDS011;62112;45.638;11.714;2023-02-07T05:27:36;7.15;;;3.80;;
71671;SDS011;62112;45.638;11.714;2023-02-07T05:30:02;7.65;;;3.95;;
71671;SDS011;62112;45.638;11.714;2023-02-07T05:32:29;6.60;;;3.50;;
71671;SDS011;62112;45.638;11.714;2023-02-07T05:35:13;7.47;;;3.50;;
71671;SDS011;62112;45.638;11.714;2023-02-07T05:37:39;7.80;;;3.58;;
71671;SDS011;62112;45.638;11.714;2023-02-07T05:40:05;6.30;;;3.07;;
71671;SDS011;62112;45.638;11.714;2023-02-07T05:42:31;7.20;;;3.75;;
71671;SDS011;62112;45.638;11.714;2023-02-07T05:44:57;6.63;;;3.33;;
71671;SDS011;62112;45.638;11.714;2023-02-07T05:47:23;8.27;;;3.63;;
71671;SDS011;62112;45.638;11.714;2023-02-07T05:49:49;7.03;;;3.55;;
71671;SDS011;62112;45.638;11.714;2023-02-07T05:52:15;7.18;;;3.45;;
71671;SDS011;62112;45.638;11.714;2023-02-07T05:54:41;7.65;;;3.85;;
71671;SDS011;62112;45.638;11.714;2023-02-07T05:57:07;7.50;;;3.60;;
71671;SDS011;62112;45.638;11.714;2023-02-07T05:59:33;7.50;;;3.50;;
71671;SDS011;62112;45.638;11.714;2023-02-07T06:01:58;6.93;;;3.53;;
71671;SDS011;62112;45.638;11.714;2023-02-07T06:04:24;7.13;;;3.70;;
71671;SDS011;62112;45.638;11.714;2023-02-07T06:06:50;7.00;;;3.60;;
71671;SDS011;62112;45.638;11.714;2023-02-07T06:09:16;7.15;;;3.30;;
71671;SDS011;62112;45.638;11.714;2023-02-07T06:11:42;6.90;;;3.40;;
71671;SDS011;62112;45.638;11.714;2023-02-07T06:14:08;6.97;;;3.63;;
71671;SDS011;62112;45.638;11.714;2023-02-07T06:16:33;6.63;;;3.50;;
71671;SDS011;62112;45.638;11.714;2023-02-07T06:18:59;6.77;;;3.43;;
71671;SDS011;62112;45.638;11.714;2023-02-07T06:21:25;7.43;;;3.78;;
71671;SDS011;62112;45.638;11.714;2023-02-07T06:23:51;6.70;;;3.50;;
71671;SDS011;62112;45.638;11.714;2023-02-07T06:26:17;7.35;;;3.50;;
71671;SDS011;62112;45.638;11.714;2023-02-07T06:28:43;7.17;;;3.53;;
71671;SDS011;62112;45.638;11.714;2023-02-07T06:31:09;7.57;;;3.67;;
71671;SDS011;62112;45.638;11.714;2023-02-07T06:33:34;6.93;;;3.53;;
71671;SDS011;62112;45.638;11.714;2023-02-07T06:36:00;7.10;;;3.70;;
71671;SDS011;62112;45.638;11.714;2023-02-07T06:38:26;7.22;;;3.70;;
71671;SDS011;62112;45.638;11.714;2023-02-07T06:40:52;7.30;;;3.80;;
71671;SDS011;62112;45.638;11.714;2023-02-07T06:43:18;7.25;;;3.80;;
71671;SDS011;62112;45.638;11.714;2023-02-07T06:45:44;6.53;;;3.43;;
71671;SDS011;62112;45.638;11.714;2023-02-07T06:48:10;7.85;;;3.85;;
71671;SDS011;62112;45.638;11.714;2023-02-07T06:50:36;7.63;;;3.87;;
71671;SDS011;62112;45.638;11.714;2023-02-07T06:53:02;7.70;;;3.73;;
71671;SDS011;62112;45.638;11.714;2023-02-07T06:55:29;8.50;;;3.95;;
71671;SDS011;62112;45.638;11.714;2023-02-07T06:57:56;7.65;;;3.53;;
71671;SDS011;62112;45.638;11.714;2023-02-07T07:00:23;7.13;;;3.65;;
71671;SDS011;62112;45.638;11.714;2023-02-07T07:02:49;7.73;;;3.93;;
71671;SDS011;62112;45.638;11.714;2023-02-07T07:05:19;8.90;;;4.00;;
71671;SDS011;62112;45.638;11.714;2023-02-07T07:07:46;8.73;;;4.03;;
71671;SDS011;62112;45.638;11.714;2023-02-07T07:10:12;10.75;;;4.20;;
71671;SDS011;62112;45.638;11.714;2023-02-07T07:12:39;8.20;;;4.00;;
71671;SDS011;62112;45.638;11.714;2023-02-07T07:15:05;8.30;;;3.83;;
71671;SDS011;62112;45.638;11.714;2023-02-07T07:17:34;10.05;;;4.20;;
71671;SDS011;62112;45.638;11.714;2023-02-07T07:20:01;9.02;;;4.20;;
71671;SDS011;62112;45.638;11.714;2023-02-07T07:22:32;9.57;;;4.13;;
71671;SDS011;62112;45.638;11.714;2023-02-07T07:25:00;10.10;;;4.38;;
71671;SDS011;62112;45.638;11.714;2023-02-07T07:27:30;8.67;;;4.43;;
71671;SDS011;62112;45.638;11.714;2023-02-07T07:30:02;11.02;;;4.75;;
71671;SDS011;62112;45.638;11.714;2023-02-07T07:32:29;9.93;;;4.63;;
71671;SDS011;62112;45.638;11.714;2023-02-07T07:34:58;9.90;;;4.28;;
71671;SDS011;62112;45.638;11.714;2023-02-07T07:37:25;9.73;;;4.80;;
71671;SDS011;62112;45.638;11.714;2023-02-07T07:39:55;10.80;;;4.90;;
71671;SDS011;62112;45.638;11.714;2023-02-07T07:42:24;11.98;;;5.13;;
71671;SDS011;62112;45.638;11.714;2023-02-07T07:44:51;12.23;;;5.30;;
71671;SDS011;62112;45.638;11.714;2023-02-07T07:47:19;9.88;;;5.10;;
71671;SDS011;62112;45.638;11.714;2023-02-07T07:49:46;10.10;;;5.13;;
71671;SDS011;62112;45.638;11.714;2023-02-07T07:52:13;9.60;;;5.33;;
71671;SDS011;62112;45.638;11.714;2023-02-07T07:54:39;12.63;;;5.47;;
71671;SDS011;62112;45.638;11.714;2023-02-07T07:57:05;10.73;;;5.28;;
71671;SDS011;62112;45.638;11.714;2023-02-07T07:59:32;9.63;;;5.10;;
71671;SDS011;62112;45.638;11.714;2023-02-07T08:01:57;9.67;;;5.23;;
71671;SDS011;62112;45.638;11.714;2023-02-07T08:04:23;10.55;;;4.65;;
71671;SDS011;62112;45.638;11.714;2023-02-07T08:06:49;10.52;;;5.13;;
71671;SDS011;62112;45.638;11.714;2023-02-07T08:09:15;9.70;;;4.93;;
71671;SDS011;62112;45.638;11.714;2023-02-07T08:11:42;9.25;;;5.10;;
71671;SDS011;62112;45.638;11.714;2023-02-07T08:14:08;9.52;;;4.90;;
71671;SDS011;62112;45.638;11.714;2023-02-07T08:16:34;9.23;;;5.00;;
71671;SDS011;62112;45.638;11.714;2023-02-07T08:18:59;8.93;;;4.80;;
71671;SDS011;62112;45.638;11.714;2023-02-07T08:21:25;8.80;;;4.75;;
71671;SDS011;62112;45.638;11.714;2023-02-07T08:23:52;10.30;;;4.90;;
71671;SDS011;62112;45.638;11.714;2023-02-07T08:26:18;10.60;;;5.20;;
71671;SDS011;62112;45.638;11.714;2023-02-07T08:28:43;9.40;;;5.15;;
71671;SDS011;62112;45.638;11.714;2023-02-07T08:31:09;9.02;;;4.93;;
71671;SDS011;62112;45.638;11.714;2023-02-07T08:33:36;9.82;;;4.90;;
71671;SDS011;62112;45.638;11.714;2023-02-07T08:36:02;9.27;;;4.47;;
71671;SDS011;62112;45.638;11.714;2023-02-07T08:38:32;9.43;;;5.00;;
71671;SDS011;62112;45.638;11.714;2023-02-07T08:40:58;10.20;;;4.70;;
71671;SDS011;62112;45.638;11.714;2023-02-07T08:43:24;8.65;;;4.50;;
71671;SDS011;62112;45.638;11.714;2023-02-07T08:45:51;8.60;;;4.67;;
71671;SDS011;62112;45.638;11.714;2023-02-07T08:48:17;12.65;;;4.60;;
71671;SDS011;62112;45.638;11.714;2023-02-07T08:50:44;9.10;;;4.78;;
71671;SDS011;62112;45.638;11.714;2023-02-07T08:53:10;9.00;;;4.57;;
71671;SDS011;62112;45.638;11.714;2023-02-07T08:55:38;9.52;;;4.75;;
71671;SDS011;62112;45.638;11.714;2023-02-07T08:58:05;9.53;;;4.40;;
71671;SDS011;62112;45.638;11.714;2023-02-07T09:00:31;9.30;;;4.63;;
71671;SDS011;62112;45.638;11.714;2023-02-07T09:03:00;10.15;;;4.82;;
71671;SDS011;62112;45.638;11.714;2023-02-07T09:05:34;8.35;;;4.50;;
71671;SDS011;62112;45.638;11.714;2023-02-07T09:08:02;8.50;;;4.60;;
71671;SDS011;62112;45.638;11.714;2023-02-07T09:10:29;9.80;;;4.70;;
71671;SDS011;62112;45.638;11.714;2023-02-07T09:12:55;9.07;;;4.88;;
71671;SDS011;62112;45.638;11.714;2023-02-07T09:15:20;8.30;;;4.55;;
71671;SDS011;62112;45.638;11.714;2023-02-07T09:17:46;9.33;;;4.90;;
71671;SDS011;62112;45.638;11.714;2023-02-07T09:20:13;8.57;;;4.68;;
71671;SDS011;62112;45.638;11.714;2023-02-07T09:22:39;9.13;;;4.53;;
71671;SDS011;62112;45.638;11.714;2023-02-07T09:25:40;9.20;;;5.07;;
71671;SDS011;62112;45.638;11.714;2023-02-07T09:28:07;9.40;;;4.87;;
71671;SDS011;62112;45.638;11.714;2023-02-07T09:30:34;9.30;;;4.53;;
71671;SDS011;62112;45.638;11.714;2023-02-07T09:33:00;8.13;;;4.43;;
71671;SDS011;62112;45.638;11.714;2023-02-07T09:35:26;9.45;;;4.93;;
71671;SDS011;62112;45.638;11.714;2023-02-07T09:37:52;9.20;;;4.70;;
71671;SDS011;62112;45.638;11.714;2023-02-07T09:40:19;8.60;;;4.80;;
71671;SDS011;62112;45.638;11.714;2023-02-07T09:45:28;8.88;;;4.57;;
71671;SDS011;62112;45.638;11.714;2023-02-07T09:50:57;7.88;;;4.10;;
71671;SDS011;62112;45.638;11.714;2023-02-07T09:53:30;8.50;;;4.30;;
71671;SDS011;62112;45.638;11.714;2023-02-07T09:56:14;9.90;;;4.60;;
71671;SDS011;62112;45.638;11.714;2023-02-07T09:58:44;8.07;;;4.40;;
71671;SDS011;62112;45.638;11.714;2023-02-07T10:01:19;10.00;;;4.37;;
71671;SDS011;62112;45.638;11.714;2023-02-07T10:03:58;9.60;;;4.78;;
71671;SDS011;62112;45.638;11.714;2023-02-07T10:06:45;8.48;;;4.22;;
71671;SDS011;62112;45.638;11.714;2023-02-07T10:09:16;10.15;;;4.40;;
71671;SDS011;62112;45.638;11.714;2023-02-07T10:22:51;8.43;;;4.35;;
71671;SDS011;62112;45.638;11.714;2023-02-07T10:30:47;8.93;;;4.28;;
71671;SDS011;62112;45.638;11.714;2023-02-07T10:33:19;8.25;;;4.22;;
71671;SDS011;62112;45.638;11.714;2023-02-07T10:35:49;8.90;;;4.30;;
71671;SDS011;62112;45.638;11.714;2023-02-07T10:38:21;8.68;;;3.95;;
71671;SDS011;62112;45.638;11.714;2023-02-07T10:41:21;8.70;;;4.20;;
71671;SDS011;62112;45.638;11.714;2023-02-07T10:43:57;9.68;;;4.13;;
71671;SDS011;62112;45.638;11.714;2023-02-07T10:46:23;7.72;;;4.13;;
71671;SDS011;62112;45.638;11.714;2023-02-07T10:48:51;9.43;;;4.18;;
71671;SDS011;62112;45.638;11.714;2023-02-07T10:54:19;8.32;;;4.20;;
71671;SDS011;62112;45.638;11.714;2023-02-07T10:56:49;8.15;;;4.35;;
71671;SDS011;62112;45.638;11.714;2023-02-07T11:04:53;20.53;;;5.53;;
71671;SDS011;62112;45.638;11.714;2023-02-07T11:07:21;25.65;;;6.18;;
71671;SDS011;62112;45.638;11.714;2023-02-07T11:09:47;32.08;;;6.07;;
71671;SDS011;62112;45.638;11.714;2023-02-07T11:15:00;22.23;;;5.35;;
71671;SDS011;62112;45.638;11.714;2023-02-07T11:17:29;27.40;;;5.40;;
71671;SDS011;62112;45.638;11.714;2023-02-07T11:19:56;24.27;;;5.82;;
71671;SDS011;62112;45.638;11.714;2023-02-07T11:22:30;22.63;;;5.43;;
71671;SDS011;62112;45.638;11.714;2023-02-07T11:25:01;20.73;;;5.60;;
71671;SDS011;62112;45.638;11.714;2023-02-07T11:27:29;21.10;;;5.38;;
71671;SDS011;62112;45.638;11.714;2023-02-07T11:30:06;24.87;;;5.37;;
71671;SDS011;62112;45.638;11.714;2023-02-07T11:32:34;19.17;;;5.40;;
71671;SDS011;62112;45.638;11.714;2023-02-07T11:35:06;19.98;;;5.40;;
71671;SDS011;62112;45.638;11.714;2023-02-07T11:37:37;32.08;;;5.63;;
71671;SDS011;62112;45.638;11.714;2023-02-07T11:42:44;25.60;;;5.37;;
71671;SDS011;62112;45.638;11.714;2023-02-07T11:45:14;20.17;;;5.05;;
71671;SDS011;62112;45.638;11.714;2023-02-07T11:47:42;29.83;;;5.53;;
71671;SDS011;62112;45.638;11.714;2023-02-07T11:50:17;18.42;;;4.70;;
71671;SDS011;62112;45.638;11.714;2023-02-07T11:52:52;15.45;;;4.97;;
71671;SDS011;62112;45.638;11.714;2023-02-07T11:55:21;17.03;;;5.07;;
71671;SDS011;62112;45.638;11.714;2023-02-07T11:57:56;16.15;;;4.80;;
71671;SDS011;62112;45.638;11.714;2023-02-07T12:00:26;14.88;;;5.00;;
71671;SDS011;62112;45.638;11.714;2023-02-07T12:02:58;14.38;;;4.97;;
71671;SDS011;62112;45.638;11.714;2023-02-07T12:05:28;17.25;;;5.10;;
71671;SDS011;62112;45.638;11.714;2023-02-07T12:08:00;23.17;;;5.23;;
71671;SDS011;62112;45.638;11.714;2023-02-07T12:10:37;23.48;;;5.32;;
71671;SDS011;62112;45.638;11.714;2023-02-07T12:15:54;26.92;;;5.20;;
71671;SDS011;62112;45.638;11.714;2023-02-07T12:26:00;18.90;;;4.50;;
71671;SDS011;62112;45.638;11.714;2023-02-07T12:28:43;12.13;;;4.23;;
71671;SDS011;62112;45.638;11.714;2023-02-07T12:31:15;14.75;;;4.50;;
71671;SDS011;62112;45.638;11.714;2023-02-07T12:34:08;16.13;;;4.15;;
71671;SDS011;62112;45.638;11.714;2023-02-07T12:36:56;14.05;;;4.35;;
71671;SDS011;62112;45.638;11.714;2023-02-07T12:39:43;12.77;;;4.35;;
71671;SDS011;62112;45.638;11.714;2023-02-07T12:45:13;11.35;;;3.90;;
71671;SDS011;62112;45.638;11.714;2023-02-07T12:50:37;13.05;;;4.00;;
71671;SDS011;62112;45.638;11.714;2023-02-07T12:53:15;13.43;;;4.05;;
71671;SDS011;62112;45.638;11.714;2023-02-07T12:56:20;13.30;;;4.03;;
71671;SDS011;62112;45.638;11.714;2023-02-07T12:58:58;9.80;;;4.13;;
71671;SDS011;62112;45.638;11.714;2023-02-07T13:01:52;10.10;;;4.10;;
71671;SDS011;62112;45.638;11.714;2023-02-07T13:21:21;11.20;;;3.80;;
71671;SDS011;62112;45.638;11.714;2023-02-07T13:24:04;8.40;;;3.50;;
71671;SDS011;62112;45.638;11.714;2023-02-07T13:26:33;10.68;;;3.90;;
71671;SDS011;62112;45.638;11.714;2023-02-07T13:29:04;9.02;;;3.67;;
71671;SDS011;62112;45.638;11.714;2023-02-07T13:31:39;9.15;;;3.53;;
71671;SDS011;62112;45.638;11.714;2023-02-07T13:34:22;9.43;;;3.70;;
71671;SDS011;62112;45.638;11.714;2023-02-07T13:36:54;9.33;;;3.63;;
71671;SDS011;62112;45.638;11.714;2023-02-07T13:45:07;7.88;;;3.60;;
71671;SDS011;62112;45.638;11.714;2023-02-07T13:47:56;7.43;;;3.40;;
71671;SDS011;62112;45.638;11.714;2023-02-07T13:50:44;7.27;;;3.37;;
71671;SDS011;62112;45.638;11.714;2023-02-07T13:56:29;8.27;;;3.50;;
71671;SDS011;62112;45.638;11.714;2023-02-07T13:59:34;8.73;;;3.50;;
71671;SDS011;62112;45.638;11.714;2023-02-07T14:02:15;7.63;;;3.17;;
71671;SDS011;62112;45.638;11.714;2023-02-07T14:04:51;6.73;;;3.30;;
71671;SDS011;62112;45.638;11.714;2023-02-07T14:07:28;6.80;;;3.00;;
71671;SDS011;62112;45.638;11.714;2023-02-07T14:09:59;8.40;;;3.25;;
71671;SDS011;62112;45.638;11.714;2023-02-07T14:12:37;7.78;;;3.30;;
71671;SDS011;62112;45.638;11.714;2023-02-07T14:23:48;7.18;;;3.30;;
71671;SDS011;62112;45.638;11.714;2023-02-07T14:31:48;7.53;;;3.23;;
71671;SDS011;62112;45.638;11.714;2023-02-07T14:34:31;7.72;;;3.10;;
71671;SDS011;62112;45.638;11.714;2023-02-07T14:37:38;7.10;;;3.20;;
71671;SDS011;62112;45.638;11.714;2023-02-07T14:40:16;7.18;;;3.20;;
71671;SDS011;62112;45.638;11.714;2023-02-07T14:43:05;9.13;;;3.25;;
71671;SDS011;62112;45.638;11.714;2023-02-07T14:45:39;8.73;;;3.20;;
71671;SDS011;62112;45.638;11.714;2023-02-07T14:50:56;9.20;;;3.25;;
71671;SDS011;62112;45.638;11.714;2023-02-07T14:53:22;7.60;;;3.50;;
71671;SDS011;62112;45.638;11.714;2023-02-07T14:55:49;7.63;;;3.40;;
71671;SDS011;62112;45.638;11.714;2023-02-07T14:58:26;8.48;;;3.40;;
71671;SDS011;62112;45.638;11.714;2023-02-07T15:01:12;8.23;;;3.45;;
71671;SDS011;62112;45.638;11.714;2023-02-07T15:03:41;6.13;;;2.90;;
71671;SDS011;62112;45.638;11.714;2023-02-07T15:06:17;6.90;;;3.15;;
71671;SDS011;62112;45.638;11.714;2023-02-07T15:08:57;6.40;;;3.20;;
71671;SDS011;62112;45.638;11.714;2023-02-07T15:11:26;9.10;;;3.47;;
71671;SDS011;62112;45.638;11.714;2023-02-07T15:13:55;6.43;;;3.00;;
71671;SDS011;62112;45.638;11.714;2023-02-07T15:16:25;7.50;;;3.50;;
71671;SDS011;62112;45.638;11.714;2023-02-07T15:19:00;7.78;;;3.40;;
71671;SDS011;62112;45.638;11.714;2023-02-07T15:21:34;7.90;;;3.20;;
71671;SDS011;62112;45.638;11.714;2023-02-07T15:24:04;10.75;;;5.80;;
71671;SDS011;62112;45.638;11.714;2023-02-07T15:26:33;19.42;;;8.30;;
71671;SDS011;62112;45.638;11.714;2023-02-07T15:29:04;11.73;;;7.30;;
71671;SDS011;62112;45.638;11.714;2023-02-07T15:31:41;14.02;;;6.47;;
71671;SDS011;62112;45.638;11.714;2023-02-07T15:34:13;10.67;;;6.17;;
71671;SDS011;62112;45.638;11.714;2023-02-07T15:36:41;11.88;;;5.93;;
71671;SDS011;62112;45.638;11.714;2023-02-07T15:39:14;11.10;;;5.78;;
71671;SDS011;62112;45.638;11.714;2023-02-07T16:37:51;27.15;;;14.82;;
71671;SDS011;62112;45.638;11.714;2023-02-07T16:40:18;25.92;;;14.23;;
71671;SDS011;62112;45.638;11.714;2023-02-07T16:42:46;23.27;;;12.70;;
71671;SDS011;62112;45.638;11.714;2023-02-07T16:45:24;23.77;;;13.07;;
71671;SDS011;62112;45.638;11.714;2023-02-07T16:47:51;25.33;;;14.02;;
71671;SDS011;62112;45.638;11.714;2023-02-07T16:50:19;23.95;;;13.73;;
71671;SDS011;62112;45.638;11.714;2023-02-07T16:52:51;24.15;;;13.45;;
71671;SDS011;62112;45.638;11.714;2023-02-07T16:55:19;20.70;;;11.90;;
71671;SDS011;62112;45.638;11.714;2023-02-07T16:57:46;26.37;;;13.83;;
71671;SDS011;62112;45.638;11.714;2023-02-07T17:00:14;22.15;;;12.82;;
71671;SDS011;67659;45.554;11.812;2023-02-07T17:02:46;29.58;;;15.63;;
71671;SDS011;67659;45.554;11.812;2023-02-07T17:05:17;27.30;;;15.13;;
71671;SDS011;67659;45.554;11.812;2023-02-07T17:07:44;25.25;;;13.73;;
71671;SDS011;67659;45.554;11.812;2023-02-07T17:10:24;26.30;;;14.37;;
71671;SDS011;67659;45.554;11.812;2023-02-07T17:12:54;30.40;;;16.95;;
71671;SDS011;67659;45.554;11.812;2023-02-07T17:15:20;28.95;;;16.02;;
71671;SDS011;67659;45.554;11.812;2023-02-07T17:17:46;29.88;;;16.77;;
71671;SDS011;67659;45.554;11.812;2023-02-07T17:20:19;24.33;;;12.85;;
71671;SDS011;67659;45.554;11.812;2023-02-07T17:22:50;22.27;;;12.93;;
71671;SDS011;67659;45.554;11.812;2023-02-07T17:25:17;23.25;;;12.82;;
71671;SDS011;67659;45.554;11.812;2023-02-07T17:27:43;25.45;;;13.02;;
71671;SDS011;67659;45.554;11.812;2023-02-07T17:30:54;24.42;;;13.82;;
71671;SDS011;67659;45.554;11.812;2023-02-07T17:33:03;24.03;;;13.83;;
71671;SDS011;67659;45.554;11.812;2023-02-07T17:35:30;27.15;;;14.25;;
71671;SDS011;67659;45.554;11.812;2023-02-07T17:37:55;24.73;;;12.70;;
71671;SDS011;67659;45.554;11.812;2023-02-07T17:42:47;24.02;;;12.98;;
71671;SDS011;67659;45.554;11.812;2023-02-07T17:45:14;26.27;;;13.32;;
71671;SDS011;67659;45.554;11.812;2023-02-07T17:47:39;28.97;;;14.97;;
71671;SDS011;67659;45.554;11.812;2023-02-07T17:50:06;30.48;;;14.73;;
71671;SDS011;67659;45.554;11.812;2023-02-07T17:52:34;31.67;;;16.17;;
71671;SDS011;67659;45.554;11.812;2023-02-07T17:55:01;29.05;;;15.25;;
71671;SDS011;67659;45.554;11.812;2023-02-07T17:57:28;28.63;;;13.73;;
71671;SDS011;67659;45.554;11.812;2023-02-07T17:59:54;22.42;;;11.68;;
71671;SDS011;67659;45.554;11.812;2023-02-07T18:02:21;24.20;;;11.88;;